sensor_id;sensor_type;location;lat;lon;timestamp;pressure;altitude;pressure_sealevel;temperature;humidity
76046;BME280;64741;41.730;44.788;2023-04-06T00:01:33;984.2;;;23.6;42.7
76046;BME280;64741;41.730;44.788;2023-04-06T00:06:29;984.3;;;23.6;42.8
76046;BME280;64741;41.730;44.788;2023-04-06T00:11:39;984.3;;;23.6;42.9
76046;BME280;64741;41.730;44.788;2023-04-06T00:16:33;984.2;;;23.6;42.8
76046;BME280;64741;41.730;44.788;2023-04-06T00:21:33;984.2;;;23.6;42.8
76046;BME280;64741;41.730;44.788;2023-04-06T00:26:33;984.2;;;23.6;42.7
76046;BME280;64741;41.730;44.788;2023-04-06T00:31:39;984.2;;;23.6;42.7
76046;BME280;64741;41.730;44.788;2023-04-06T00:36:29;984.2;;;23.6;42.7
76046;BME280;64741;41.730;44.788;2023-04-06T00:41:38;984.2;;;23.6;42.6
76046;BME280;64741;41.730;44.788;2023-04-06T00:46:33;984.2;;;23.6;42.6
76046;BME280;64741;41.730;44.788;2023-04-06T00:51:33;984.1;;;23.6;42.7
76046;BME280;64741;41.730;44.788;2023-04-06T00:56:40;984.2;;;23.5;42.6
76046;BME280;64741;41.730;44.788;2023-04-06T01:01:29;984.2;;;23.5;42.7
76046;BME280;64741;41.730;44.788;2023-04-06T01:06:39;984.2;;;23.5;42.7
76046;BME280;64741;41.730;44.788;2023-04-06T01:11:33;984.2;;;23.5;42.6
76046;BME280;64741;41.730;44.788;2023-04-06T01:16:31;984.1;;;23.5;42.7
76046;BME280;64741;41.730;44.788;2023-04-06T01:21:27;984.1;;;23.5;42.7
76046;BME280;64741;41.730;44.788;2023-04-06T01:26:27;984;;;23.5;42.6
76046;BME280;64741;41.730;44.788;2023-04-06T01:31:39;984;;;23.5;42.5
76046;BME280;64741;41.730;44.788;2023-04-06T01:36:31;984;;;23.5;42.5
76046;BME280;64741;41.730;44.788;2023-04-06T01:41:31;984.1;;;23.5;42.5
76046;BME280;64741;41.730;44.788;2023-04-06T01:46:39;984.1;;;23.5;42.4
76046;BME280;64741;41.730;44.788;2023-04-06T01:51:29;984.1;;;23.5;42.4
76046;BME280;64741;41.730;44.788;2023-04-06T01:56:39;984.1;;;23.5;42.4
76046;BME280;64741;41.730;44.788;2023-04-06T02:01:33;984.2;;;23.5;42.4
76046;BME280;64741;41.730;44.788;2023-04-06T02:06:17;984.2;;;23.5;42.4
76046;BME280;64741;41.730;44.788;2023-04-06T02:11:39;984.2;;;23.5;42.4
76046;BME280;64741;41.730;44.788;2023-04-06T02:16:29;984.2;;;23.5;42.4
76046;BME280;64741;41.730;44.788;2023-04-06T02:21:39;984.3;;;23.4;42.4
76046;BME280;64741;41.730;44.788;2023-04-06T02:26:33;984.3;;;23.4;42.5
76046;BME280;64741;41.730;44.788;2023-04-06T02:31:31;984.4;;;23.4;42.4
76046;BME280;64741;41.730;44.788;2023-04-06T02:36:39;984.4;;;23.4;42.5
76046;BME280;64741;41.730;44.788;2023-04-06T02:41:29;984.4;;;23.4;42.4
76046;BME280;64741;41.730;44.788;2023-04-06T02:46:39;984.4;;;23.4;42.3
76046;BME280;64741;41.730;44.788;2023-04-06T02:51:33;984.4;;;23.4;42.2
76046;BME280;64741;41.730;44.788;2023-04-06T02:56:33;984.5;;;23.4;42.2
76046;BME280;64741;41.730;44.788;2023-04-06T03:01:39;984.4;;;23.4;42.1
76046;BME280;64741;41.730;44.788;2023-04-06T03:06:29;984.4;;;23.4;42
76046;BME280;64741;41.730;44.788;2023-04-06T03:11:39;984.5;;;23.4;42.1
76046;BME280;64741;41.730;44.788;2023-04-06T03:16:33;984.5;;;23.5;42
76046;BME280;64741;41.730;44.788;2023-04-06T03:21:33;984.6;;;23.5;42.1
76046;BME280;64741;41.730;44.788;2023-04-06T03:26:39;984.6;;;23.5;42.1
76046;BME280;64741;41.730;44.788;2023-04-06T03:31:29;984.7;;;23.5;42.1
76046;BME280;64741;41.730;44.788;2023-04-06T03:36:39;984.7;;;23.5;42
76046;BME280;64741;41.730;44.788;2023-04-06T03:41:33;984.7;;;23.5;42.1
76046;BME280;64741;41.730;44.788;2023-04-06T03:46:33;984.7;;;23.5;42
76046;BME280;64741;41.730;44.788;2023-04-06T03:51:39;984.7;;;23.4;42
76046;BME280;64741;41.730;44.788;2023-04-06T03:56:29;984.7;;;23.4;41.9
76046;BME280;64741;41.730;44.788;2023-04-06T04:01:37;984.7;;;23.5;41.9
76046;BME280;64741;41.730;44.788;2023-04-06T04:06:33;984.7;;;23.5;41.9
76046;BME280;64741;41.730;44.788;2023-04-06T04:11:33;984.7;;;23.4;41.9
76046;BME280;64741;41.730;44.788;2023-04-06T04:16:39;984.6;;;23.4;41.9
76046;BME280;64741;41.730;44.788;2023-04-06T04:21:29;984.7;;;23.4;41.9
76046;BME280;64741;41.730;44.788;2023-04-06T04:26:40;984.7;;;23.4;41.9
76046;BME280;64741;41.730;44.788;2023-04-06T04:31:33;984.7;;;23.4;41.9
76046;BME280;64741;41.730;44.788;2023-04-06T04:36:31;984.6;;;23.4;41.9
76046;BME280;64741;41.730;44.788;2023-04-06T04:41:33;984.6;;;23.4;42
76046;BME280;64741;41.730;44.788;2023-04-06T04:46:27;984.5;;;23.4;42
76046;BME280;64741;41.730;44.788;2023-04-06T04:51:37;984.6;;;23.4;42
76046;BME280;64741;41.730;44.788;2023-04-06T04:56:33;984.6;;;23.4;42
76046;BME280;64741;41.730;44.788;2023-04-06T05:01:31;984.5;;;23.4;41.9
76046;BME280;64741;41.730;44.788;2023-04-06T05:06:33;984.5;;;23.4;41.8
76046;BME280;64741;41.730;44.788;2023-04-06T05:11:27;984.4;;;23.4;41.9
76046;BME280;64741;41.730;44.788;2023-04-06T05:16:39;984.4;;;23.4;42
76046;BME280;64741;41.730;44.788;2023-04-06T05:21:18;984.4;;;23.4;42.1
76046;BME280;64741;41.730;44.788;2023-04-06T05:26:33;984.4;;;23.4;42.1
76046;BME280;64741;41.730;44.788;2023-04-06T05:31:33;984.4;;;23.4;42.1
76046;BME280;64741;41.730;44.788;2023-04-06T05:36:27;984.4;;;23.4;42.1
76046;BME280;64741;41.730;44.788;2023-04-06T05:41:39;984.3;;;23.4;42.1
76046;BME280;64741;41.730;44.788;2023-04-06T05:46:33;984.4;;;23.4;42.1
76046;BME280;64741;41.730;44.788;2023-04-06T05:51:31;984.4;;;23.4;42.1
76046;BME280;64741;41.730;44.788;2023-04-06T05:56:33;984.4;;;23.4;42.1
76046;BME280;64741;41.730;44.788;2023-04-06T06:01:27;984.4;;;23.4;42.1
76046;BME280;64741;41.730;44.788;2023-04-06T06:06:37;984.4;;;23.4;42.1
76046;BME280;64741;41.730;44.788;2023-04-06T06:11:33;984.5;;;23.4;42.1
76046;BME280;64741;41.730;44.788;2023-04-06T06:16:31;984.5;;;23.4;42.2
76046;BME280;64741;41.730;44.788;2023-04-06T06:21:33;984.5;;;23.4;42.2
76046;BME280;64741;41.730;44.788;2023-04-06T06:26:29;984.5;;;23.5;42.3
76046;BME280;64741;41.730;44.788;2023-04-06T06:31:37;984.5;;;23.4;42.1
76046;BME280;64741;41.730;44.788;2023-04-06T06:36:33;984.5;;;23.4;42.2
76046;BME280;64741;41.730;44.788;2023-04-06T06:41:29;984.5;;;23.4;42.4
76046;BME280;64741;41.730;44.788;2023-04-06T06:46:33;984.5;;;23.5;42.5
76046;BME280;64741;41.730;44.788;2023-04-06T06:51:25;984.4;;;23.5;42.7
76046;BME280;64741;41.730;44.788;2023-04-06T06:56:37;984.4;;;23.5;42.5
76046;BME280;64741;41.730;44.788;2023-04-06T07:01:33;984.4;;;23.5;42.5
76046;BME280;64741;41.730;44.788;2023-04-06T07:06:31;984.3;;;23.5;42.2
76046;BME280;64741;41.730;44.788;2023-04-06T07:11:33;984.3;;;23.5;42
76046;BME280;64741;41.730;44.788;2023-04-06T07:16:27;984.2;;;23.5;42
76046;BME280;64741;41.730;44.788;2023-04-06T07:21:37;984.1;;;23.5;41.7
76046;BME280;64741;41.730;44.788;2023-04-06T07:26:33;984.1;;;23.5;41.7
76046;BME280;64741;41.730;44.788;2023-04-06T07:31:31;984.1;;;23.5;41.6
76046;BME280;64741;41.730;44.788;2023-04-06T07:36:33;984;;;23.5;41.5
76046;BME280;64741;41.730;44.788;2023-04-06T07:41:27;984;;;23.4;41.3
76046;BME280;64741;41.730;44.788;2023-04-06T07:46:25;983.9;;;23.5;41.3
76046;BME280;64741;41.730;44.788;2023-04-06T07:51:35;983.8;;;23.5;41.2
76046;BME280;64741;41.730;44.788;2023-04-06T07:56:31;983.8;;;23.5;41.1
76046;BME280;64741;41.730;44.788;2023-04-06T08:01:33;983.7;;;23.5;40.9
76046;BME280;64741;41.730;44.788;2023-04-06T08:06:21;983.7;;;23.5;41.1
76046;BME280;64741;41.730;44.788;2023-04-06T08:11:37;983.6;;;23.5;41
76046;BME280;64741;41.730;44.788;2023-04-06T08:16:31;983.5;;;23.5;41.3
76046;BME280;64741;41.730;44.788;2023-04-06T08:21:15;983.5;;;23.5;41.1
76046;BME280;64741;41.730;44.788;2023-04-06T08:26:25;983.5;;;23.5;40.9
76046;BME280;64741;41.730;44.788;2023-04-06T08:31:27;983.4;;;23.6;40.9
76046;BME280;64741;41.730;44.788;2023-04-06T08:36:35;983.4;;;23.6;40.7
76046;BME280;64741;41.730;44.788;2023-04-06T08:41:27;983.3;;;23.6;40.7
76046;BME280;64741;41.730;44.788;2023-04-06T08:46:30;983.2;;;23.6;40.7
76046;BME280;64741;41.730;44.788;2023-04-06T08:51:31;983.1;;;23.6;40.5
76046;BME280;64741;41.730;44.788;2023-04-06T08:56:27;983;;;23.6;40.4
76046;BME280;64741;41.730;44.788;2023-04-06T09:01:38;982.9;;;23.6;40.2
76046;BME280;64741;41.730;44.788;2023-04-06T09:06:27;982.7;;;23.6;40.1
76046;BME280;64741;41.730;44.788;2023-04-06T09:11:40;982.7;;;23.7;39.9
76046;BME280;64741;41.730;44.788;2023-04-06T09:16:38;982.6;;;23.7;39.9
76046;BME280;64741;41.730;44.788;2023-04-06T09:21:27;982.6;;;23.7;39.7
76046;BME280;64741;41.730;44.788;2023-04-06T09:26:51;982.6;;;23.6;39.7
76046;BME280;64741;41.730;44.788;2023-04-06T09:31:26;982.5;;;23.7;39.6
76046;BME280;64741;41.730;44.788;2023-04-06T09:36:32;982.5;;;23.7;39.6
76046;BME280;64741;41.730;44.788;2023-04-06T09:41:30;982.5;;;23.7;39.6
76046;BME280;64741;41.730;44.788;2023-04-06T09:46:27;982.5;;;23.6;39.3
76046;BME280;64741;41.730;44.788;2023-04-06T09:51:25;982.5;;;23.6;39.3
76046;BME280;64741;41.730;44.788;2023-04-06T09:56:28;982.6;;;23.6;39.2
76046;BME280;64741;41.730;44.788;2023-04-06T10:00:56;982.7;;;23.6;39.3
76046;BME280;64741;41.730;44.788;2023-04-06T10:06:32;982.7;;;23.6;39.2
76046;BME280;64741;41.730;44.788;2023-04-06T10:11:27;982.9;;;23.6;39.2
76046;BME280;64741;41.730;44.788;2023-04-06T10:16:35;982.9;;;23.6;39.2
76046;BME280;64741;41.730;44.788;2023-04-06T10:21:27;982.9;;;23.6;39.1
76046;BME280;64741;41.730;44.788;2023-04-06T10:26:27;983;;;23.6;39
76046;BME280;64741;41.730;44.788;2023-04-06T10:31:31;982.9;;;23.6;39
76046;BME280;64741;41.730;44.788;2023-04-06T10:36:28;982.9;;;23.5;39.3
76046;BME280;64741;41.730;44.788;2023-04-06T10:41:21;982.9;;;23.5;39.4
76046;BME280;64741;41.730;44.788;2023-04-06T10:46:28;982.9;;;23.5;39.7
76046;BME280;64741;41.730;44.788;2023-04-06T10:51:29;982.8;;;23.5;39.8
76046;BME280;64741;41.730;44.788;2023-04-06T10:56:31;982.7;;;23.5;39.9
76046;BME280;64741;41.730;44.788;2023-04-06T11:01:29;982.7;;;23.5;39.8
76046;BME280;64741;41.730;44.788;2023-04-06T11:06:33;982.7;;;23.5;39.8
76046;BME280;64741;41.730;44.788;2023-04-06T11:11:27;982.6;;;23.5;39.9
76046;BME280;64741;41.730;44.788;2023-04-06T11:16:28;982.6;;;23.5;40.1
76046;BME280;64741;41.730;44.788;2023-04-06T11:21:33;982.5;;;23.5;40.8
76046;BME280;64741;41.730;44.788;2023-04-06T11:26:27;982.5;;;23.6;42.1
76046;BME280;64741;41.730;44.788;2023-04-06T11:31:37;982.6;;;23.6;43
76046;BME280;64741;41.730;44.788;2023-04-06T11:36:26;982.6;;;23.6;43.3
76046;BME280;64741;41.730;44.788;2023-04-06T11:41:29;982.6;;;23.6;43.3
76046;BME280;64741;41.730;44.788;2023-04-06T11:46:32;982.7;;;23.6;43.5
76046;BME280;64741;41.730;44.788;2023-04-06T11:51:29;982.7;;;23.6;43.7
76046;BME280;64741;41.730;44.788;2023-04-06T11:56:37;982.8;;;23.6;43.5
76046;BME280;64741;41.730;44.788;2023-04-06T12:01:27;982.9;;;23.6;43.1
76046;BME280;64741;41.730;44.788;2023-04-06T12:06:29;982.8;;;23.6;42.8
76046;BME280;64741;41.730;44.788;2023-04-06T12:11:31;982.6;;;23.6;42.9
76046;BME280;64741;41.730;44.788;2023-04-06T12:16:27;982.5;;;23.6;42.9
76046;BME280;64741;41.730;44.788;2023-04-06T12:21:35;982.5;;;23.6;43
76046;BME280;64741;41.730;44.788;2023-04-06T12:26:28;982.3;;;23.6;42.9
76046;BME280;64741;41.730;44.788;2023-04-06T12:31:29;982.3;;;23.6;42.7
76046;BME280;64741;41.730;44.788;2023-04-06T12:36:32;982.4;;;23.6;42.6
76046;BME280;64741;41.730;44.788;2023-04-06T12:41:28;982.6;;;23.6;42.7
76046;BME280;64741;41.730;44.788;2023-04-06T12:46:31;982.8;;;23.6;42.4
76046;BME280;64741;41.730;44.788;2023-04-06T12:51:28;982.9;;;23.6;42.2
76046;BME280;64741;41.730;44.788;2023-04-06T12:56:29;982.9;;;23.6;42.2
76046;BME280;64741;41.730;44.788;2023-04-06T13:01:31;983;;;23.6;42.2
76046;BME280;64741;41.730;44.788;2023-04-06T13:06:27;983.1;;;23.6;42.2
76046;BME280;64741;41.730;44.788;2023-04-06T13:11:35;983.2;;;23.6;42.2
76046;BME280;64741;41.730;44.788;2023-04-06T13:16:27;983.2;;;23.6;42.3
76046;BME280;64741;41.730;44.788;2023-04-06T13:21:29;983.2;;;23.6;42.2
76046;BME280;64741;41.730;44.788;2023-04-06T13:26:32;983.3;;;23.7;42.3
76046;BME280;64741;41.730;44.788;2023-04-06T13:31:27;983.4;;;23.7;42.3
76046;BME280;64741;41.730;44.788;2023-04-06T13:36:35;983.4;;;23.7;42.3
76046;BME280;64741;41.730;44.788;2023-04-06T13:41:29;983.4;;;23.7;42.2
76046;BME280;64741;41.730;44.788;2023-04-06T13:46:30;983.4;;;23.7;42.2
76046;BME280;64741;41.730;44.788;2023-04-06T13:51:33;983.5;;;23.7;42.2
76046;BME280;64741;41.730;44.788;2023-04-06T13:56:29;983.5;;;23.7;42.1
76046;BME280;64741;41.730;44.788;2023-04-06T14:01:33;983.4;;;23.7;42.2
76046;BME280;64741;41.730;44.788;2023-04-06T14:06:10;983.5;;;23.7;42.2
76046;BME280;64741;41.730;44.788;2023-04-06T14:11:31;983.6;;;23.7;42.2
76046;BME280;64741;41.730;44.788;2023-04-06T14:16:31;983.6;;;23.7;42.1
76046;BME280;64741;41.730;44.788;2023-04-06T14:21:30;983.6;;;23.7;42.2
76046;BME280;64741;41.730;44.788;2023-04-06T14:26:36;983.6;;;23.7;42.2
76046;BME280;64741;41.730;44.788;2023-04-06T14:31:31;983.7;;;23.7;42.2
76046;BME280;64741;41.730;44.788;2023-04-06T14:36:33;983.8;;;23.7;42.2
76046;BME280;64741;41.730;44.788;2023-04-06T14:41:34;983.8;;;23.7;42.2
76046;BME280;64741;41.730;44.788;2023-04-06T14:46:29;983.9;;;23.8;42.2
76046;BME280;64741;41.730;44.788;2023-04-06T14:51:38;983.9;;;23.8;42.2
76046;BME280;64741;41.730;44.788;2023-04-06T14:56:32;983.8;;;23.7;42.1
76046;BME280;64741;41.730;44.788;2023-04-06T15:01:20;983.8;;;23.7;42.1
76046;BME280;64741;41.730;44.788;2023-04-06T15:06:34;983.7;;;23.7;42.2
76046;BME280;64741;41.730;44.788;2023-04-06T15:11:32;983.7;;;23.7;42.3
76046;BME280;64741;41.730;44.788;2023-04-06T15:16:38;983.7;;;23.8;42.2
76046;BME280;64741;41.730;44.788;2023-04-06T15:21:32;983.7;;;23.8;42.2
76046;BME280;64741;41.730;44.788;2023-04-06T15:26:32;983.8;;;23.8;42.2
76046;BME280;64741;41.730;44.788;2023-04-06T15:31:32;983.9;;;23.8;42.2
76046;BME280;64741;41.730;44.788;2023-04-06T15:36:32;984.1;;;23.8;42.3
76046;BME280;64741;41.730;44.788;2023-04-06T15:41:36;984.2;;;23.8;42.2
76046;BME280;64741;41.730;44.788;2023-04-06T15:46:32;984.2;;;23.8;42.3
76046;BME280;64741;41.730;44.788;2023-04-06T15:51:34;984.3;;;23.8;42.3
76046;BME280;64741;41.730;44.788;2023-04-06T15:56:34;984.4;;;23.8;42.3
76046;BME280;64741;41.730;44.788;2023-04-06T16:01:32;984.5;;;23.8;42.1
76046;BME280;64741;41.730;44.788;2023-04-06T16:06:40;984.6;;;23.8;42.1
76046;BME280;64741;41.730;44.788;2023-04-06T16:11:32;984.7;;;23.8;42
76046;BME280;64741;41.730;44.788;2023-04-06T16:16:32;984.9;;;23.8;42
76046;BME280;64741;41.730;44.788;2023-04-06T16:21:32;985;;;23.7;42
76046;BME280;64741;41.730;44.788;2023-04-06T16:26:32;985;;;23.7;41.9
76046;BME280;64741;41.730;44.788;2023-04-06T16:31:34;985;;;23.7;41.9
76046;BME280;64741;41.730;44.788;2023-04-06T16:36:32;985.1;;;23.7;41.9
76046;BME280;64741;41.730;44.788;2023-04-06T16:41:34;985.2;;;23.7;41.9
76046;BME280;64741;41.730;44.788;2023-04-06T16:46:32;985.3;;;23.7;41.9
76046;BME280;64741;41.730;44.788;2023-04-06T16:51:32;985.4;;;23.7;41.9
76046;BME280;64741;41.730;44.788;2023-04-06T16:56:38;985.4;;;23.6;41.8
76046;BME280;64741;41.730;44.788;2023-04-06T17:01:32;985.5;;;23.6;41.9
76046;BME280;64741;41.730;44.788;2023-04-06T17:06:34;985.5;;;23.6;41.9
76046;BME280;64741;41.730;44.788;2023-04-06T17:11:34;985.5;;;23.6;41.8
76046;BME280;64741;41.730;44.788;2023-04-06T17:16:32;985.6;;;23.6;41.8
76046;BME280;64741;41.730;44.788;2023-04-06T17:21:38;985.6;;;23.6;41.8
76046;BME280;64741;41.730;44.788;2023-04-06T17:26:32;985.7;;;23.6;41.8
76046;BME280;64741;41.730;44.788;2023-04-06T17:31:34;985.9;;;23.6;41.8
76046;BME280;64741;41.730;44.788;2023-04-06T17:36:34;985.9;;;23.6;41.8
76046;BME280;64741;41.730;44.788;2023-04-06T17:41:32;985.9;;;23.5;41.8
76046;BME280;64741;41.730;44.788;2023-04-06T17:46:40;986;;;23.5;41.8
76046;BME280;64741;41.730;44.788;2023-04-06T17:51:32;986.1;;;23.5;41.8
76046;BME280;64741;41.730;44.788;2023-04-06T17:56:34;986.1;;;23.5;41.8
76046;BME280;64741;41.730;44.788;2023-04-06T18:01:34;986.1;;;23.5;41.8
76046;BME280;64741;41.730;44.788;2023-04-06T18:06:32;986.1;;;23.5;41.8
76046;BME280;64741;41.730;44.788;2023-04-06T18:11:40;986.2;;;23.5;41.8
76046;BME280;64741;41.730;44.788;2023-04-06T18:16:32;986.3;;;23.5;41.8
76046;BME280;64741;41.730;44.788;2023-04-06T18:21:36;986.4;;;23.5;41.8
76046;BME280;64741;41.730;44.788;2023-04-06T18:26:36;986.4;;;23.5;41.8
76046;BME280;64741;41.730;44.788;2023-04-06T18:31:34;986.4;;;23.5;41.7
76046;BME280;64741;41.730;44.788;2023-04-06T18:36:42;986.4;;;23.5;41.8
76046;BME280;64741;41.730;44.788;2023-04-06T18:41:34;986.4;;;23.5;41.7
76046;BME280;64741;41.730;44.788;2023-04-06T18:46:36;986.4;;;23.5;41.7
76046;BME280;64741;41.730;44.788;2023-04-06T18:51:36;986.4;;;23.5;41.7
76046;BME280;64741;41.730;44.788;2023-04-06T18:56:22;986.4;;;23.5;41.7
76046;BME280;64741;41.730;44.788;2023-04-06T19:01:42;986.4;;;23.5;41.6
76046;BME280;64741;41.730;44.788;2023-04-06T19:06:34;986.4;;;23.5;41.6
76046;BME280;64741;41.730;44.788;2023-04-06T19:11:20;986.4;;;23.5;41.6
76046;BME280;64741;41.730;44.788;2023-04-06T19:16:36;986.4;;;23.5;41.6
76046;BME280;64741;41.730;44.788;2023-04-06T19:21:34;986.5;;;23.5;41.6
76046;BME280;64741;41.730;44.788;2023-04-06T19:26:40;986.5;;;23.4;41.6
76046;BME280;64741;41.730;44.788;2023-04-06T19:31:34;986.6;;;23.4;41.6
76046;BME280;64741;41.730;44.788;2023-04-06T19:36:36;986.6;;;23.4;41.6
76046;BME280;64741;41.730;44.788;2023-04-06T19:41:28;986.6;;;23.4;41.7
76046;BME280;64741;41.730;44.788;2023-04-06T19:46:34;986.6;;;23.4;41.7
76046;BME280;64741;41.730;44.788;2023-04-06T19:51:38;986.6;;;23.4;41.6
76046;BME280;64741;41.730;44.788;2023-04-06T19:56:34;986.7;;;23.4;41.6
76046;BME280;64741;41.730;44.788;2023-04-06T20:01:34;986.7;;;23.4;41.7
76046;BME280;64741;41.730;44.788;2023-04-06T20:06:34;986.7;;;23.4;41.7
76046;BME280;64741;41.730;44.788;2023-04-06T20:11:24;986.6;;;23.4;41.7
76046;BME280;64741;41.730;44.788;2023-04-06T20:16:42;986.6;;;23.4;41.7
76046;BME280;64741;41.730;44.788;2023-04-06T20:21:34;986.6;;;23.4;41.9
76046;BME280;64741;41.730;44.788;2023-04-06T20:26:36;986.6;;;23.4;41.9
76046;BME280;64741;41.730;44.788;2023-04-06T20:31:36;986.6;;;23.4;42
76046;BME280;64741;41.730;44.788;2023-04-06T20:36:34;986.6;;;23.4;42.1
76046;BME280;64741;41.730;44.788;2023-04-06T20:41:36;986.6;;;23.4;42.2
76046;BME280;64741;41.730;44.788;2023-04-06T20:46:36;986.7;;;23.4;42.2
76046;BME280;64741;41.730;44.788;2023-04-06T20:51:34;986.6;;;23.5;42.2
76046;BME280;64741;41.730;44.788;2023-04-06T20:56:42;986.7;;;23.5;42.2
76046;BME280;64741;41.730;44.788;2023-04-06T21:01:34;986.6;;;23.5;42.3
76046;BME280;64741;41.730;44.788;2023-04-06T21:06:36;986.6;;;23.5;42.2
76046;BME280;64741;41.730;44.788;2023-04-06T21:11:36;986.6;;;23.5;42.3
76046;BME280;64741;41.730;44.788;2023-04-06T21:16:34;986.6;;;23.5;42.3
76046;BME280;64741;41.730;44.788;2023-04-06T21:26:34;986.6;;;23.5;42.3
76046;BME280;64741;41.730;44.788;2023-04-06T21:31:36;986.6;;;23.5;42.3
76046;BME280;64741;41.730;44.788;2023-04-06T21:36:34;986.7;;;23.5;42.3
76046;BME280;64741;41.730;44.788;2023-04-06T21:41:34;986.7;;;23.5;42.3
76046;BME280;64741;41.730;44.788;2023-04-06T21:46:40;986.8;;;23.5;42.3
76046;BME280;64741;41.730;44.788;2023-04-06T21:51:34;986.8;;;23.5;42.3
76046;BME280;64741;41.730;44.788;2023-04-06T21:56:34;986.8;;;23.5;42.3
76046;BME280;64741;41.730;44.788;2023-04-06T22:01:36;986.8;;;23.5;42.3
76046;BME280;64741;41.730;44.788;2023-04-06T22:06:35;986.8;;;23.6;42.3
76046;BME280;64741;41.730;44.788;2023-04-06T22:11:42;986.8;;;23.6;42.3
76046;BME280;64741;41.730;44.788;2023-04-06T22:16:34;986.8;;;23.6;42.3
76046;BME280;64741;41.730;44.788;2023-04-06T22:21:36;986.8;;;23.6;42.4
76046;BME280;64741;41.730;44.788;2023-04-06T22:26:36;986.8;;;23.5;42.3
76046;BME280;64741;41.730;44.788;2023-04-06T22:31:34;986.8;;;23.5;42.3
76046;BME280;64741;41.730;44.788;2023-04-06T22:36:40;986.9;;;23.5;42.3
76046;BME280;64741;41.730;44.788;2023-04-06T22:41:34;986.9;;;23.6;42.3
76046;BME280;64741;41.730;44.788;2023-04-06T22:46:36;986.8;;;23.6;42.3
76046;BME280;64741;41.730;44.788;2023-04-06T22:51:34;986.8;;;23.6;42.3
76046;BME280;64741;41.730;44.788;2023-04-06T22:56:34;986.8;;;23.6;42.4
76046;BME280;64741;41.730;44.788;2023-04-06T23:01:42;986.7;;;23.6;42.4
76046;BME280;64741;41.730;44.788;2023-04-06T23:06:34;986.7;;;23.6;42.3
76046;BME280;64741;41.730;44.788;2023-04-06T23:11:36;986.7;;;23.6;42.3
76046;BME280;64741;41.730;44.788;2023-04-06T23:16:22;986.7;;;23.6;42.3
76046;BME280;64741;41.730;44.788;2023-04-06T23:21:34;986.7;;;23.6;42.2
76046;BME280;64741;41.730;44.788;2023-04-06T23:26:42;986.7;;;23.6;42.1
76046;BME280;64741;41.730;44.788;2023-04-06T23:31:22;986.7;;;23.6;42
76046;BME280;64741;41.730;44.788;2023-04-06T23:36:34;986.7;;;23.6;41.9
76046;BME280;64741;41.730;44.788;2023-04-06T23:41:36;986.6;;;23.6;41.8
76046;BME280;64741;41.730;44.788;2023-04-06T23:46:34;986.6;;;23.6;41.8
76046;BME280;64741;41.730;44.788;2023-04-06T23:51:42;986.7;;;23.6;41.8
76046;BME280;64741;41.730;44.788;2023-04-06T23:56:34;986.7;;;23.6;41.7
